createdAt,value
2022-11-10T00:03:50.044Z,7.27
2022-11-10T00:08:13.483Z,7.21
2022-11-10T00:12:37.003Z,7.14
2022-11-10T00:17:04.675Z,7.07
2022-11-10T00:21:26.790Z,7.03
2022-11-10T00:25:48.527Z,6.99
2022-11-10T00:30:12.370Z,6.94
2022-11-10T00:34:33.786Z,6.91
2022-11-10T00:38:55.443Z,6.90
2022-11-10T00:43:16.980Z,6.85
2022-11-10T00:47:40.046Z,6.87
2022-11-10T00:52:01.614Z,6.88
2022-11-10T00:56:24.534Z,6.91
2022-11-10T01:00:46.319Z,6.94
2022-11-10T01:05:10.220Z,6.94
2022-11-10T01:09:31.911Z,6.95
2022-11-10T01:13:54.759Z,6.95
2022-11-10T01:18:16.151Z,6.97
2022-11-10T01:22:40.653Z,6.95
2022-11-10T01:27:02.489Z,6.93
2022-11-10T01:31:24.170Z,6.87
2022-11-10T01:35:47.142Z,6.84
2022-11-10T01:40:11.867Z,6.82
2022-11-10T01:44:33.436Z,6.79
2022-11-10T01:49:00.222Z,6.83
2022-11-10T01:53:26.373Z,6.84
2022-11-10T01:57:49.204Z,6.88
2022-11-10T02:02:27.810Z,6.90
2022-11-10T02:06:50.955Z,6.89
2022-11-10T02:11:13.220Z,6.90
2022-11-10T02:15:36.418Z,6.90
2022-11-10T02:20:00.914Z,6.88
2022-11-10T02:24:23.760Z,6.84
2022-11-10T02:28:45.363Z,6.84
2022-11-10T02:33:06.913Z,6.79
2022-11-10T02:37:28.397Z,6.76
2022-11-10T02:41:51.547Z,6.76
2022-11-10T02:46:13.189Z,6.75
2022-11-10T02:50:35.094Z,6.69
2022-11-10T02:54:56.416Z,6.67
2022-11-10T02:59:19.612Z,6.63
2022-11-10T03:03:41.594Z,6.56
2022-11-10T03:08:05.286Z,6.54
2022-11-10T03:12:27.292Z,6.52
2022-11-10T03:16:49.968Z,6.59
2022-11-10T03:21:11.967Z,6.64
2022-11-10T03:25:34.385Z,6.66
2022-11-10T03:29:56.241Z,6.66
2022-11-10T03:34:19.141Z,6.70
2022-11-10T03:38:40.610Z,6.72
2022-11-10T03:43:01.925Z,6.73
2022-11-10T03:47:23.426Z,6.72
2022-11-10T03:51:46.291Z,6.70
2022-11-10T03:56:08.224Z,6.75
2022-11-10T04:00:30.294Z,6.79
2022-11-10T04:05:09.529Z,6.82
2022-11-10T04:09:32.369Z,6.84
2022-11-10T04:14:11.575Z,6.84
2022-11-10T04:18:33.085Z,6.85
2022-11-10T04:23:12.476Z,6.84
2022-11-10T04:27:35.534Z,6.86
2022-11-10T04:31:56.963Z,6.87
2022-11-10T04:36:20.477Z,6.90
2022-11-10T04:40:41.718Z,6.93
2022-11-10T04:45:05.111Z,6.93
2022-11-10T04:49:26.910Z,6.93
2022-11-10T04:53:48.523Z,6.94
2022-11-10T04:58:09.981Z,6.97
2022-11-10T05:02:38.276Z,7.00
2022-11-10T05:07:01.208Z,7.01
2022-11-10T05:11:22.819Z,7.01
2022-11-10T05:15:44.380Z,7.04
2022-11-10T05:20:08.936Z,7.06
2022-11-10T05:24:30.242Z,7.09
2022-11-10T05:28:52.087Z,7.11
2022-11-10T05:33:13.636Z,7.11
2022-11-10T05:37:40.321Z,7.15
2022-11-10T05:42:02.645Z,7.16
2022-11-10T05:46:24.594Z,7.16
2022-11-10T05:50:46.758Z,7.14
2022-11-10T05:55:10.536Z,7.13
2022-11-10T05:59:31.864Z,7.07
2022-11-10T06:03:53.450Z,7.01
2022-11-10T06:08:15.472Z,6.97
2022-11-10T06:12:38.551Z,6.98
2022-11-10T06:17:00.249Z,7.02
2022-11-10T06:21:21.836Z,7.07
2022-11-10T06:25:44.714Z,7.07
2022-11-10T06:30:09.492Z,7.10
2022-11-10T06:34:31.239Z,7.13
2022-11-10T06:38:52.950Z,7.14
2022-11-10T06:43:14.870Z,7.15
2022-11-10T06:47:37.898Z,7.14
2022-11-10T06:51:59.313Z,7.13
2022-11-10T06:56:20.698Z,7.09
2022-11-10T07:00:42.605Z,7.09
2022-11-10T07:05:06.118Z,7.11
2022-11-10T07:09:27.679Z,7.14
2022-11-10T07:13:49.181Z,7.09
2022-11-10T07:18:11.043Z,7.04
2022-11-10T07:22:34.143Z,7.01
2022-11-10T07:26:55.900Z,7.00
2022-11-10T07:31:17.198Z,7.00
2022-11-10T07:35:38.643Z,7.01
2022-11-10T07:40:01.899Z,7.04
2022-11-10T07:44:23.757Z,7.15
2022-11-10T07:48:45.087Z,7.25
2022-11-10T07:53:07.851Z,7.46
2022-11-10T07:57:31.477Z,7.61
2022-11-10T08:01:53.175Z,7.69
2022-11-10T08:06:15.247Z,7.75
2022-11-10T08:10:37.272Z,7.83
2022-11-10T08:15:00.015Z,7.90
2022-11-10T08:19:21.653Z,7.97
2022-11-10T08:23:43.557Z,8.05
2022-11-10T08:28:07.125Z,8.11
2022-11-10T08:32:30.061Z,8.18
2022-11-10T08:36:53.794Z,8.24
2022-11-10T08:41:15.982Z,8.28
2022-11-10T08:45:38.433Z,8.33
2022-11-10T08:50:01.477Z,8.41
2022-11-10T08:54:22.690Z,8.47
2022-11-10T08:58:52.856Z,8.57
2022-11-10T09:03:16.943Z,8.67
2022-11-10T09:07:46.274Z,8.77
2022-11-10T09:12:07.786Z,8.89
2022-11-10T09:16:29.128Z,8.98
2022-11-10T09:20:50.827Z,9.08
2022-11-10T09:25:14.002Z,9.19
2022-11-10T09:29:35.440Z,9.28
2022-11-10T09:33:56.859Z,9.37
2022-11-10T09:38:18.832Z,9.50
2022-11-10T09:42:42.976Z,9.58
2022-11-10T09:47:12.462Z,9.70
2022-11-10T09:51:42.823Z,9.82
2022-11-10T09:56:15.558Z,9.94
2022-11-10T10:00:38.579Z,10.08
2022-11-10T10:05:34.511Z,10.19
2022-11-10T10:10:03.324Z,10.29
2022-11-10T10:14:43.573Z,10.38
2022-11-10T10:19:21.164Z,10.46
2022-11-10T10:28:37.911Z,10.58
2022-11-10T10:33:10.819Z,10.66
2022-11-10T10:37:42.634Z,10.68
2022-11-10T10:42:07.949Z,10.74
2022-11-10T10:46:35.732Z,10.76
2022-11-10T10:50:57.399Z,10.79
2022-11-10T10:55:20.785Z,10.81
2022-11-10T10:59:42.401Z,10.82
2022-11-10T11:04:26.300Z,10.86
2022-11-10T11:09:00.212Z,10.87
2022-11-10T11:13:25.996Z,10.93
2022-11-10T11:17:55.999Z,10.98
2022-11-10T11:22:35.240Z,11.02
2022-11-10T11:27:02.712Z,11.08
2022-11-10T11:31:38.741Z,11.08
2022-11-10T11:36:13.835Z,11.13
2022-11-10T11:40:46.306Z,11.17
2022-11-10T11:45:17.776Z,11.22
2022-11-10T11:50:02.285Z,11.30
2022-11-10T11:54:39.784Z,11.34
2022-11-10T11:59:17.774Z,11.37
2022-11-10T12:04:00.286Z,11.40
2022-11-10T12:08:34.637Z,11.41
2022-11-10T12:13:21.734Z,11.40
2022-11-10T12:17:52.065Z,11.44
2022-11-10T12:22:25.585Z,11.45
2022-11-10T12:26:56.318Z,11.47
2022-11-10T12:31:23.456Z,11.51
2022-11-10T12:35:47.305Z,11.54
2022-11-10T12:40:18.333Z,11.60
2022-11-10T12:44:54.954Z,11.63
2022-11-10T12:49:19.638Z,11.64
2022-11-10T12:53:43.331Z,11.68
2022-11-10T12:58:07.276Z,11.68
2022-11-10T13:02:34.688Z,11.70
2022-11-10T13:06:58.335Z,11.70
2022-11-10T13:11:27.338Z,11.70
2022-11-10T13:15:52.393Z,11.67
2022-11-10T13:20:47.985Z,11.67
2022-11-10T13:25:57.561Z,11.77
2022-11-10T13:30:39.061Z,11.74
2022-11-10T13:35:37.937Z,11.69
2022-11-10T13:40:28.095Z,11.64
2022-11-10T13:44:50.991Z,11.61
2022-11-10T13:49:40.894Z,11.61
2022-11-10T13:54:25.605Z,11.59
2022-11-10T13:58:47.355Z,11.58
2022-11-10T14:03:34.719Z,11.55
2022-11-10T14:08:05.193Z,11.52
2022-11-10T14:12:31.851Z,11.50
2022-11-10T14:16:55.302Z,11.46
2022-11-10T14:21:24.451Z,11.43
2022-11-10T14:25:56.627Z,11.40
2022-11-10T14:30:25.637Z,11.39
2022-11-10T14:34:51.112Z,11.37
2022-11-10T14:39:17.474Z,11.33
2022-11-10T14:43:40.778Z,11.27
2022-11-10T14:48:02.338Z,11.24
2022-11-10T14:52:24.030Z,11.24
2022-11-10T14:56:47.272Z,11.21
2022-11-10T15:01:25.466Z,11.16
2022-11-10T15:05:48.223Z,11.12
2022-11-10T15:10:17.768Z,11.05
2022-11-10T15:14:42.537Z,11.00
2022-11-10T15:19:28.265Z,10.93
2022-11-10T15:23:55.571Z,10.91
2022-11-10T15:28:28.279Z,10.87
2022-11-10T15:32:50.792Z,10.84
2022-11-10T15:37:30.297Z,10.77
2022-11-10T15:41:59.362Z,10.73
2022-11-10T15:46:23.173Z,10.65
2022-11-10T15:50:46.620Z,10.60
2022-11-10T15:55:21.510Z,10.53
2022-11-10T15:59:44.108Z,10.50
2022-11-10T16:04:06.291Z,10.47
2022-11-10T16:08:30.719Z,10.42
2022-11-10T16:12:54.318Z,10.42
2022-11-10T16:17:15.754Z,10.38
2022-11-10T16:21:37.689Z,10.34
2022-11-10T16:26:00.248Z,10.32
2022-11-10T16:30:23.228Z,10.29
2022-11-10T16:34:44.789Z,10.28
2022-11-10T16:39:13.351Z,10.24
2022-11-10T16:43:34.773Z,10.21
2022-11-10T16:47:59.006Z,10.17
2022-11-10T16:52:22.631Z,10.12
2022-11-10T16:56:44.429Z,10.08
2022-11-10T17:01:06.499Z,10.05
2022-11-10T17:05:29.671Z,10.04
2022-11-10T17:09:50.910Z,10.02
2022-11-10T17:14:13.953Z,9.99
2022-11-10T17:18:36.306Z,9.97
2022-11-10T17:22:59.182Z,9.94
2022-11-10T17:27:21.149Z,9.93
2022-11-10T17:31:42.471Z,9.91
2022-11-10T17:36:05.448Z,9.89
2022-11-10T17:40:31.262Z,9.90
2022-11-10T17:44:52.648Z,9.89
2022-11-10T17:49:13.968Z,9.87
2022-11-10T17:53:35.829Z,9.87
2022-11-10T17:57:58.612Z,9.83
2022-11-10T18:02:20.117Z,9.81
2022-11-10T18:06:42.027Z,9.76
2022-11-10T18:11:03.547Z,9.71
2022-11-10T18:15:26.423Z,9.66
2022-11-10T18:19:47.925Z,9.63
2022-11-10T18:24:09.952Z,9.60
2022-11-10T18:28:31.391Z,9.57
2022-11-10T18:32:54.456Z,9.55
2022-11-10T18:37:16.191Z,9.53
2022-11-10T18:41:50.008Z,9.50
2022-11-10T18:46:11.344Z,9.40
2022-11-10T18:50:38.139Z,9.38
2022-11-10T18:54:59.685Z,9.28
2022-11-10T18:59:21.561Z,9.24
2022-11-10T19:03:43.788Z,9.23
2022-11-10T19:08:08.103Z,9.24
2022-11-10T19:12:29.497Z,9.24
2022-11-10T19:16:51.416Z,9.21
2022-11-10T19:21:20.684Z,9.17
2022-11-10T19:25:45.664Z,9.11
2022-11-10T19:30:07.850Z,9.06
2022-11-10T19:34:31.591Z,8.99
2022-11-10T19:38:54.354Z,8.92
2022-11-10T19:43:17.226Z,8.88
2022-11-10T19:47:38.525Z,8.84
2022-11-10T19:52:00.164Z,8.78
2022-11-10T19:56:26.311Z,8.76
2022-11-10T20:00:52.313Z,8.73
2022-11-10T20:05:13.977Z,8.72
2022-11-10T20:09:35.930Z,8.68
2022-11-10T20:14:00.409Z,8.66
2022-11-10T20:18:23.545Z,8.64
2022-11-10T20:22:45.884Z,8.58
2022-11-10T20:27:07.581Z,8.54
2022-11-10T20:31:29.474Z,8.50
2022-11-10T20:35:52.363Z,8.47
2022-11-10T20:40:42.273Z,8.44
2022-11-10T20:44:55.784Z,8.41
2022-11-10T20:49:17.393Z,8.40
2022-11-10T20:53:40.998Z,8.36
2022-11-10T20:58:02.925Z,8.33
2022-11-10T21:02:24.555Z,8.31
2022-11-10T21:06:46.436Z,8.26
2022-11-10T21:11:10.595Z,8.23
2022-11-10T21:15:32.440Z,8.22
2022-11-10T21:19:55.157Z,8.20
2022-11-10T21:24:16.706Z,8.14
2022-11-10T21:28:39.993Z,8.07
2022-11-10T21:33:01.623Z,8.03
2022-11-10T21:37:23.729Z,7.98
2022-11-10T21:41:45.429Z,7.94
2022-11-10T21:46:09.160Z,7.90
2022-11-10T21:50:30.838Z,7.87
2022-11-10T21:54:52.286Z,7.83
2022-11-10T21:59:14.196Z,7.76
2022-11-10T22:03:37.108Z,7.71
2022-11-10T22:07:58.645Z,7.67
2022-11-10T22:12:37.666Z,7.64
2022-11-10T22:17:18.088Z,7.63
2022-11-10T22:21:41.140Z,7.61
2022-11-10T22:26:02.832Z,7.60
2022-11-10T22:30:24.424Z,7.61
2022-11-10T22:34:46.099Z,7.60
2022-11-10T22:39:09.499Z,7.58
2022-11-10T22:43:48.691Z,7.55
2022-11-10T22:48:28.638Z,7.52
2022-11-10T22:52:49.848Z,7.49
2022-11-10T22:57:12.911Z,7.48
2022-11-10T23:01:35.106Z,7.48
2022-11-10T23:05:56.905Z,7.46
2022-11-10T23:10:18.565Z,7.45
2022-11-10T23:14:41.320Z,7.41
2022-11-10T23:19:03.003Z,7.39
2022-11-10T23:23:24.846Z,7.38
2022-11-10T23:27:47.037Z,7.36
2022-11-10T23:32:10.097Z,7.35
2022-11-10T23:36:31.603Z,7.32
2022-11-10T23:40:56.609Z,7.29
2022-11-10T23:45:18.328Z,7.28
2022-11-10T23:49:41.170Z,7.28
2022-11-10T23:54:02.692Z,7.24
2022-11-10T23:58:24.202Z,7.23
